createdAt,value
2022-12-31T00:00:43.819Z,64.08
2022-12-31T00:03:14.980Z,63.31
2022-12-31T00:05:45.657Z,66.03
2022-12-31T00:08:16.652Z,64.91
2022-12-31T00:10:47.593Z,61.92
2022-12-31T00:13:18.541Z,60.74
2022-12-31T00:15:49.406Z,64.50
2022-12-31T00:18:20.607Z,64.64
2022-12-31T00:20:51.955Z,60.22
2022-12-31T00:23:23.013Z,61.79
2022-12-31T00:25:54.128Z,55.28
2022-12-31T00:28:25.100Z,54.74
2022-12-31T00:30:56.184Z,57.44
2022-12-31T00:33:28.997Z,57.99
2022-12-31T00:36:11.337Z,55.04
2022-12-31T00:38:44.019Z,60.93
2022-12-31T00:41:15.961Z,56.12
2022-12-31T00:43:47.115Z,63.84
2022-12-31T00:46:19.236Z,60.41
2022-12-31T00:48:51.219Z,56.08
2022-12-31T00:51:24.174Z,55.62
2022-12-31T00:53:55.599Z,54.14
2022-12-31T00:56:29.830Z,50.49
2022-12-31T00:59:02.225Z,49.76
2022-12-31T01:01:38.538Z,52.39
2022-12-31T01:04:21.904Z,54.42
2022-12-31T01:06:52.990Z,50.25
2022-12-31T01:09:24.080Z,52.13
2022-12-31T01:11:55.270Z,56.36
2022-12-31T01:14:26.580Z,56.20
2022-12-31T01:16:57.026Z,54.56
2022-12-31T01:19:30.455Z,53.92
2022-12-31T01:22:01.751Z,54.60
2022-12-31T01:24:32.243Z,56.07
2022-12-31T01:27:03.521Z,54.90
2022-12-31T01:29:34.738Z,54.44
2022-12-31T01:32:06.804Z,53.91
2022-12-31T01:34:38.407Z,55.12
2022-12-31T01:37:09.760Z,59.53
2022-12-31T01:39:40.678Z,54.14
2022-12-31T01:42:14.123Z,59.47
2022-12-31T01:44:45.320Z,58.11
2022-12-31T01:47:19.421Z,56.25
2022-12-31T01:49:55.575Z,58.30
2022-12-31T01:52:40.362Z,53.59
2022-12-31T01:55:21.524Z,54.21
2022-12-31T01:57:54.749Z,53.66
2022-12-31T02:00:25.856Z,49.39
2022-12-31T02:02:57.593Z,48.12
2022-12-31T02:05:54.259Z,51.53
2022-12-31T02:08:25.330Z,52.87
2022-12-31T02:10:56.260Z,48.74
2022-12-31T02:13:26.757Z,49.52
2022-12-31T02:16:14.238Z,52.85
2022-12-31T02:18:49.494Z,48.05
2022-12-31T02:21:32.196Z,46.25
2022-12-31T02:24:18.487Z,49.20
2022-12-31T02:27:04.071Z,48.94
2022-12-31T02:29:59.527Z,52.13
2022-12-31T02:33:02.936Z,45.42
2022-12-31T02:35:50.280Z,48.52
2022-12-31T02:38:25.179Z,46.19
2022-12-31T02:40:57.055Z,45.87
2022-12-31T02:43:28.709Z,48.22
2022-12-31T02:46:28.017Z,48.07
2022-12-31T02:49:05.809Z,49.99
2022-12-31T02:52:05.889Z,47.04
2022-12-31T02:54:46.742Z,45.80
2022-12-31T02:57:29.809Z,50.67
2022-12-31T03:00:25.475Z,48.85
2022-12-31T03:02:57.762Z,48.69
2022-12-31T03:05:31.222Z,47.92
2022-12-31T03:08:02.395Z,48.12
2022-12-31T03:10:33.740Z,46.01
2022-12-31T03:13:05.383Z,48.55
2022-12-31T03:15:37.198Z,44.21
2022-12-31T03:18:17.086Z,44.32
2022-12-31T03:21:09.566Z,45.76
2022-12-31T03:23:51.615Z,44.43
2022-12-31T03:26:22.500Z,48.41
2022-12-31T03:28:52.940Z,46.38
2022-12-31T03:31:24.089Z,45.99
2022-12-31T03:33:55.342Z,45.42
2022-12-31T03:36:26.821Z,46.86
2022-12-31T03:38:57.779Z,46.72
2022-12-31T03:41:29.198Z,45.54
2022-12-31T03:44:01.543Z,46.06
2022-12-31T03:46:32.600Z,46.29
2022-12-31T03:49:02.967Z,45.92
2022-12-31T03:51:34.216Z,46.56
2022-12-31T03:54:06.059Z,42.19
2022-12-31T03:56:37.297Z,45.63
2022-12-31T03:59:08.378Z,48.15
2022-12-31T04:01:39.871Z,47.66
2022-12-31T04:04:10.306Z,46.44
2022-12-31T04:06:41.250Z,47.92
2022-12-31T04:09:12.223Z,48.13
2022-12-31T04:11:43.523Z,45.85
2022-12-31T04:14:14.902Z,45.21
2022-12-31T04:16:45.954Z,46.02
2022-12-31T04:19:17.270Z,47.87
2022-12-31T04:21:48.619Z,47.93
2022-12-31T04:24:19.951Z,46.48
2022-12-31T04:26:50.959Z,48.17
2022-12-31T04:29:22.375Z,49.16
2022-12-31T04:31:52.887Z,45.54
2022-12-31T04:34:24.345Z,43.56
2022-12-31T04:36:55.237Z,46.33
2022-12-31T04:39:27.484Z,44.88
2022-12-31T04:41:58.938Z,45.77
2022-12-31T04:44:30.562Z,47.20
2022-12-31T04:47:01.581Z,46.92
2022-12-31T04:49:32.813Z,44.99
2022-12-31T04:52:03.946Z,44.63
2022-12-31T04:54:35.420Z,44.28
2022-12-31T04:57:07.986Z,46.49
2022-12-31T04:59:39.160Z,45.46
2022-12-31T05:02:11.115Z,43.98
2022-12-31T05:04:42.643Z,42.16
2022-12-31T05:07:13.745Z,47.03
2022-12-31T05:09:44.622Z,47.97
2022-12-31T05:12:15.084Z,46.47
2022-12-31T05:14:46.243Z,46.35
2022-12-31T05:17:17.667Z,45.60
2022-12-31T05:19:49.113Z,44.33
2022-12-31T05:22:31.818Z,45.59
2022-12-31T05:25:03.426Z,44.32
2022-12-31T05:27:34.691Z,46.66
2022-12-31T05:30:06.211Z,49.21
2022-12-31T05:32:37.287Z,48.11
2022-12-31T05:35:09.286Z,49.82
2022-12-31T05:37:40.408Z,47.77
2022-12-31T05:40:11.274Z,47.22
2022-12-31T05:42:42.321Z,47.99
2022-12-31T05:45:16.858Z,56.88
2022-12-31T05:47:48.957Z,70.89
2022-12-31T05:50:19.496Z,79.31
2022-12-31T05:52:57.772Z,78.91
2022-12-31T05:55:29.289Z,82.18
2022-12-31T05:58:00.674Z,86.25
2022-12-31T06:00:32.702Z,83.96
2022-12-31T06:03:03.886Z,90.24
2022-12-31T06:05:35.547Z,94.87
2022-12-31T06:08:06.956Z,95.90
2022-12-31T06:10:38.349Z,99.35
2022-12-31T06:13:10.097Z,100.00
2022-12-31T06:15:42.399Z,100.00
2022-12-31T06:18:13.698Z,100.00
2022-12-31T06:20:44.780Z,100.00
2022-12-31T06:23:15.918Z,100.00
2022-12-31T06:25:47.130Z,100.00
2022-12-31T06:28:20.302Z,100.00
2022-12-31T06:30:51.931Z,100.00
2022-12-31T06:33:23.107Z,100.00
2022-12-31T06:36:01.867Z,100.00
2022-12-31T06:38:34.359Z,100.00
2022-12-31T06:41:11.615Z,100.00
2022-12-31T06:43:43.809Z,100.00
2022-12-31T06:46:17.564Z,100.00
2022-12-31T06:48:48.936Z,100.00
2022-12-31T06:51:21.964Z,100.00
2022-12-31T06:53:53.766Z,100.00
2022-12-31T06:56:34.396Z,100.00
2022-12-31T06:59:06.896Z,100.00
2022-12-31T07:01:50.272Z,100.00
2022-12-31T07:04:30.698Z,100.00
2022-12-31T07:07:15.522Z,100.00
2022-12-31T07:10:33.822Z,100.00
2022-12-31T07:13:45.153Z,100.00
2022-12-31T07:16:22.445Z,100.00
2022-12-31T07:19:16.698Z,100.00
2022-12-31T07:21:48.432Z,100.00
2022-12-31T07:24:19.756Z,100.00
2022-12-31T07:27:25.081Z,100.00
2022-12-31T07:30:05.015Z,100.00
2022-12-31T07:32:58.729Z,100.00
2022-12-31T07:35:57.219Z,100.00
2022-12-31T07:38:52.771Z,100.00
2022-12-31T07:41:39.101Z,100.00
2022-12-31T07:44:36.897Z,100.00
2022-12-31T07:47:10.372Z,100.00
2022-12-31T07:49:43.623Z,100.00
2022-12-31T07:52:14.796Z,100.00
2022-12-31T07:55:03.501Z,100.00
2022-12-31T07:57:51.082Z,100.00
2022-12-31T08:00:22.549Z,100.00
2022-12-31T08:03:23.903Z,100.00
2022-12-31T08:06:22.928Z,100.00
2022-12-31T08:09:11.176Z,100.00
2022-12-31T08:11:50.627Z,100.00
2022-12-31T08:14:22.332Z,100.00
2022-12-31T08:16:53.821Z,100.00
2022-12-31T08:19:29.034Z,100.00
2022-12-31T08:22:18.225Z,100.00
2022-12-31T08:25:10.787Z,100.00
2022-12-31T08:27:52.717Z,100.00
2022-12-31T08:30:24.808Z,100.00
2022-12-31T08:33:17.752Z,100.00
2022-12-31T08:36:22.323Z,100.00
2022-12-31T08:38:57.747Z,100.00
2022-12-31T08:41:37.616Z,100.00
2022-12-31T08:44:18.352Z,100.00
2022-12-31T08:47:04.477Z,100.00
2022-12-31T08:49:37.246Z,100.00
2022-12-31T08:52:17.593Z,100.00
2022-12-31T08:54:49.059Z,100.00
2022-12-31T08:57:25.565Z,100.00
2022-12-31T09:00:17.836Z,100.00
2022-12-31T09:03:01.160Z,100.00
2022-12-31T09:05:56.456Z,100.00
2022-12-31T09:08:55.088Z,100.00
2022-12-31T09:11:33.484Z,100.00
2022-12-31T09:14:11.162Z,100.00
2022-12-31T09:16:51.479Z,100.00
2022-12-31T09:19:23.156Z,100.00
2022-12-31T09:21:54.933Z,100.00
2022-12-31T09:24:26.058Z,100.00
2022-12-31T09:27:16.261Z,100.00
2022-12-31T09:29:53.364Z,100.00
2022-12-31T09:33:00.851Z,100.00
2022-12-31T09:36:10.970Z,100.00
2022-12-31T09:38:48.021Z,100.00
2022-12-31T09:41:40.744Z,100.00
2022-12-31T09:44:48.462Z,100.00
2022-12-31T09:47:22.587Z,100.00
2022-12-31T09:50:19.568Z,100.00
2022-12-31T09:53:20.776Z,100.00
2022-12-31T09:55:59.022Z,100.00
2022-12-31T09:58:54.537Z,100.00
2022-12-31T10:01:53.297Z,100.00
2022-12-31T10:04:55.212Z,100.00
2022-12-31T10:07:38.355Z,100.00
2022-12-31T10:10:16.982Z,100.00
2022-12-31T10:13:15.710Z,100.00
2022-12-31T10:16:04.556Z,100.00
2022-12-31T10:18:51.930Z,100.00
2022-12-31T10:21:50.345Z,100.00
2022-12-31T10:24:42.518Z,100.00
2022-12-31T10:27:19.699Z,100.00
2022-12-31T10:29:58.299Z,100.00
2022-12-31T10:32:58.072Z,100.00
2022-12-31T10:35:56.465Z,100.00
2022-12-31T10:38:32.664Z,100.00
2022-12-31T10:41:21.490Z,100.00
2022-12-31T10:44:16.694Z,100.00
2022-12-31T10:47:14.811Z,100.00
2022-12-31T10:49:55.175Z,100.00
2022-12-31T10:52:41.670Z,100.00
2022-12-31T10:55:34.455Z,100.00
2022-12-31T10:58:22.956Z,100.00
2022-12-31T11:01:20.087Z,100.00
2022-12-31T11:04:36.296Z,100.00
2022-12-31T11:07:45.055Z,100.00
2022-12-31T11:10:52.548Z,100.00
2022-12-31T11:14:20.159Z,100.00
2022-12-31T11:17:23.503Z,100.00
2022-12-31T11:20:00.380Z,100.00
2022-12-31T11:22:56.463Z,100.00
2022-12-31T11:25:50.500Z,100.00
2022-12-31T11:28:21.848Z,100.00
2022-12-31T11:30:55.799Z,100.00
2022-12-31T11:33:36.008Z,100.00
2022-12-31T11:36:34.911Z,100.00
2022-12-31T11:39:31.262Z,100.00
2022-12-31T11:42:29.271Z,100.00
2022-12-31T11:45:33.832Z,100.00
2022-12-31T11:48:30.094Z,100.00
2022-12-31T11:51:11.297Z,100.00
2022-12-31T11:54:06.484Z,100.00
2022-12-31T11:56:41.010Z,100.00
2022-12-31T11:59:19.200Z,100.00
2022-12-31T12:01:54.645Z,100.00
2022-12-31T12:04:26.460Z,100.00
2022-12-31T12:06:57.929Z,100.00
2022-12-31T12:09:31.482Z,100.00
2022-12-31T12:12:05.484Z,100.00
2022-12-31T12:14:43.072Z,100.00
2022-12-31T12:17:35.788Z,100.00
2022-12-31T12:20:20.420Z,100.00
2022-12-31T12:22:54.242Z,100.00
2022-12-31T12:25:27.683Z,100.00
2022-12-31T12:27:58.663Z,100.00
2022-12-31T12:30:30.753Z,100.00
2022-12-31T12:33:06.163Z,100.00
2022-12-31T12:35:38.458Z,100.00
2022-12-31T12:38:20.539Z,100.00
2022-12-31T12:41:07.309Z,100.00
2022-12-31T12:43:39.682Z,100.00
2022-12-31T12:46:46.086Z,100.00
2022-12-31T12:49:26.776Z,100.00
2022-12-31T12:52:06.980Z,100.00
2022-12-31T12:54:48.654Z,100.00
2022-12-31T12:57:25.482Z,100.00
2022-12-31T13:00:11.968Z,100.00
2022-12-31T13:03:33.172Z,100.00
2022-12-31T13:06:31.915Z,100.00
2022-12-31T13:09:30.342Z,100.00
2022-12-31T13:12:07.281Z,100.00
2022-12-31T13:14:54.597Z,100.00
2022-12-31T13:17:52.706Z,100.00
2022-12-31T13:20:43.516Z,100.00
2022-12-31T13:23:25.362Z,100.00
2022-12-31T13:25:58.595Z,100.00
2022-12-31T13:28:29.445Z,100.00
2022-12-31T13:31:42.449Z,100.00
2022-12-31T13:34:19.140Z,100.00
2022-12-31T13:36:52.331Z,100.00
2022-12-31T13:39:37.505Z,100.00
2022-12-31T13:42:24.664Z,100.00
2022-12-31T13:45:11.678Z,100.00
2022-12-31T13:47:56.436Z,100.00
2022-12-31T13:50:43.025Z,100.00
2022-12-31T13:53:23.841Z,100.00
2022-12-31T13:55:59.756Z,100.00
2022-12-31T13:58:40.252Z,100.00
2022-12-31T14:01:36.144Z,100.00
2022-12-31T14:04:13.966Z,100.00
2022-12-31T14:07:00.512Z,100.00
2022-12-31T14:09:35.073Z,100.00
2022-12-31T14:12:12.699Z,100.00
2022-12-31T14:14:52.414Z,100.00
2022-12-31T14:17:48.711Z,100.00
2022-12-31T14:20:37.345Z,100.00
2022-12-31T14:23:33.011Z,100.00
2022-12-31T14:26:07.825Z,100.00
2022-12-31T14:28:47.117Z,100.00
2022-12-31T14:31:27.892Z,100.00
2022-12-31T14:34:16.450Z,100.00
2022-12-31T14:37:25.757Z,100.00
2022-12-31T14:40:17.389Z,100.00
2022-12-31T14:42:58.173Z,100.00
2022-12-31T14:45:50.092Z,100.00
2022-12-31T14:48:44.264Z,100.00
2022-12-31T14:51:15.735Z,100.00
2022-12-31T14:53:58.257Z,100.00
2022-12-31T14:56:47.941Z,100.00
2022-12-31T14:59:37.271Z,100.00
2022-12-31T15:02:32.581Z,100.00
2022-12-31T15:05:13.259Z,100.00
2022-12-31T15:07:50.253Z,100.00
2022-12-31T15:10:36.623Z,100.00
2022-12-31T15:13:18.071Z,100.00
2022-12-31T15:16:10.495Z,100.00
2022-12-31T15:18:52.347Z,100.00
2022-12-31T15:21:57.036Z,100.00
2022-12-31T15:24:31.995Z,100.00
2022-12-31T15:27:06.180Z,100.00
2022-12-31T15:29:45.044Z,100.00
2022-12-31T15:32:27.458Z,100.00
2022-12-31T15:35:24.493Z,100.00
2022-12-31T15:38:17.129Z,100.00
2022-12-31T15:40:53.978Z,100.00
2022-12-31T15:43:46.482Z,100.00
2022-12-31T15:46:21.311Z,100.00
2022-12-31T15:49:15.612Z,100.00
2022-12-31T15:51:54.013Z,100.00
2022-12-31T15:54:38.727Z,100.00
2022-12-31T15:57:15.900Z,100.00
2022-12-31T15:59:47.517Z,100.00
2022-12-31T16:02:25.654Z,100.00
2022-12-31T16:04:57.278Z,100.00
2022-12-31T16:07:29.970Z,100.00
2022-12-31T16:10:02.316Z,100.00
2022-12-31T16:12:42.460Z,100.00
2022-12-31T16:15:23.322Z,100.00
2022-12-31T16:18:06.015Z,100.00
2022-12-31T16:20:48.720Z,100.00
2022-12-31T16:23:29.308Z,100.00
2022-12-31T16:26:03.111Z,100.00
2022-12-31T16:28:35.325Z,100.00
2022-12-31T16:31:09.325Z,100.00
2022-12-31T16:33:40.515Z,100.00
2022-12-31T16:36:25.476Z,100.00
2022-12-31T16:39:00.885Z,100.00
2022-12-31T16:41:44.010Z,100.00
2022-12-31T16:44:29.531Z,100.00
2022-12-31T16:47:05.434Z,100.00
2022-12-31T16:49:39.633Z,100.00
2022-12-31T16:52:24.381Z,100.00
2022-12-31T16:54:55.567Z,100.00
2022-12-31T16:57:29.180Z,100.00
2022-12-31T17:00:08.534Z,100.00
2022-12-31T17:02:42.175Z,100.00
2022-12-31T17:05:31.678Z,100.00
2022-12-31T17:08:21.959Z,100.00
2022-12-31T17:10:53.887Z,100.00
2022-12-31T17:13:31.831Z,100.00
2022-12-31T17:16:03.647Z,100.00
2022-12-31T17:18:39.841Z,100.00
2022-12-31T17:21:12.305Z,100.00
2022-12-31T17:23:44.027Z,100.00
2022-12-31T17:26:15.662Z,100.00
2022-12-31T17:28:47.814Z,100.00
2022-12-31T17:31:38.873Z,100.00
2022-12-31T17:34:16.126Z,100.00
2022-12-31T17:37:25.727Z,100.00
2022-12-31T17:40:40.605Z,100.00
2022-12-31T17:42:54.737Z,100.00
2022-12-31T17:45:26.159Z,100.00
2022-12-31T17:48:01.241Z,100.00
2022-12-31T17:50:32.407Z,100.00
2022-12-31T17:53:11.997Z,100.00
2022-12-31T17:55:44.692Z,100.00
2022-12-31T17:58:30.661Z,100.00
2022-12-31T18:01:02.562Z,100.00
2022-12-31T18:03:34.500Z,100.00
2022-12-31T18:06:09.163Z,100.00
2022-12-31T18:08:44.190Z,100.00
2022-12-31T18:11:19.484Z,100.00
2022-12-31T18:13:50.874Z,100.00
2022-12-31T18:16:22.069Z,100.00
2022-12-31T18:18:53.321Z,100.00
2022-12-31T18:21:35.963Z,100.00
2022-12-31T18:24:07.488Z,100.00
2022-12-31T18:26:38.406Z,100.00
2022-12-31T18:29:21.356Z,100.00
2022-12-31T18:31:53.348Z,100.00
2022-12-31T18:34:24.511Z,100.00
2022-12-31T18:36:55.471Z,100.00
2022-12-31T18:39:26.590Z,100.00
2022-12-31T18:41:57.831Z,100.00
2022-12-31T18:44:28.979Z,100.00
2022-12-31T18:47:00.622Z,100.00
2022-12-31T18:49:32.015Z,100.00
2022-12-31T18:52:03.306Z,100.00
2022-12-31T18:54:34.333Z,100.00
2022-12-31T18:57:05.511Z,100.00
2022-12-31T18:59:36.728Z,100.00
2022-12-31T19:02:16.517Z,100.00
2022-12-31T19:04:47.882Z,100.00
2022-12-31T19:07:19.099Z,100.00
2022-12-31T19:09:54.659Z,98.18
2022-12-31T19:12:29.948Z,94.50
2022-12-31T19:15:01.322Z,90.99
2022-12-31T19:17:33.736Z,91.73
2022-12-31T19:20:05.832Z,89.47
2022-12-31T19:22:36.882Z,89.14
2022-12-31T19:25:24.018Z,90.37
2022-12-31T19:27:55.683Z,89.83
2022-12-31T19:30:28.791Z,90.88
2022-12-31T19:32:59.862Z,87.53
2022-12-31T19:35:30.973Z,90.51
2022-12-31T19:38:02.355Z,85.14
2022-12-31T19:40:34.020Z,88.20
2022-12-31T19:43:05.183Z,85.28
2022-12-31T19:45:36.370Z,83.00
2022-12-31T19:48:07.656Z,86.29
2022-12-31T19:50:38.819Z,86.37
2022-12-31T19:53:13.574Z,87.19
2022-12-31T19:55:45.122Z,85.56
2022-12-31T19:58:27.465Z,84.71
2022-12-31T20:01:02.690Z,81.06
2022-12-31T20:03:35.551Z,81.08
2022-12-31T20:06:11.717Z,83.66
2022-12-31T20:08:46.107Z,80.34
2022-12-31T20:11:26.023Z,80.74
2022-12-31T20:13:57.780Z,80.39
2022-12-31T20:16:31.088Z,80.20
2022-12-31T20:19:02.784Z,81.78
2022-12-31T20:21:33.795Z,81.14
2022-12-31T20:24:05.451Z,77.29
2022-12-31T20:26:36.324Z,76.40
2022-12-31T20:29:07.515Z,80.23
2022-12-31T20:31:38.686Z,77.54
2022-12-31T20:34:09.661Z,74.85
2022-12-31T20:36:41.591Z,75.91
2022-12-31T20:39:11.841Z,71.98
2022-12-31T20:41:43.258Z,74.15
2022-12-31T20:44:14.522Z,72.49
2022-12-31T20:46:45.759Z,72.63
2022-12-31T20:49:23.713Z,70.57
2022-12-31T20:52:07.933Z,69.77
2022-12-31T20:54:38.949Z,72.88
2022-12-31T20:57:10.467Z,70.80
2022-12-31T20:59:41.283Z,70.10
2022-12-31T21:02:21.232Z,70.29
2022-12-31T21:04:53.240Z,71.60
2022-12-31T21:07:24.521Z,69.85
2022-12-31T21:09:55.654Z,72.55
2022-12-31T21:12:45.244Z,68.45
2022-12-31T21:15:17.088Z,70.73
2022-12-31T21:17:48.653Z,69.63
2022-12-31T21:20:20.448Z,68.22
2022-12-31T21:22:51.600Z,65.33
2022-12-31T21:25:22.527Z,64.59
2022-12-31T21:27:53.592Z,68.02
2022-12-31T21:30:24.739Z,66.08
2022-12-31T21:32:55.942Z,67.39
2022-12-31T21:35:48.440Z,65.20
2022-12-31T21:38:18.484Z,66.76
2022-12-31T21:40:50.009Z,63.61
2022-12-31T21:43:21.530Z,67.86
2022-12-31T21:46:01.210Z,64.09
2022-12-31T21:51:11.619Z,63.23
2022-12-31T21:53:42.809Z,66.69
2022-12-31T21:56:16.080Z,63.02
2022-12-31T21:59:14.619Z,62.91
2022-12-31T22:02:03.923Z,66.06
2022-12-31T22:05:01.334Z,63.79
2022-12-31T22:07:26.511Z,64.66
2022-12-31T22:09:57.849Z,63.96
2022-12-31T22:12:29.036Z,61.25
2022-12-31T22:15:14.693Z,65.11
2022-12-31T22:17:48.178Z,64.55
2022-12-31T22:20:28.309Z,64.15
2022-12-31T22:22:59.864Z,62.72
2022-12-31T22:25:30.613Z,58.78
2022-12-31T22:30:52.446Z,60.81
2022-12-31T22:33:23.741Z,59.28
2022-12-31T22:36:08.637Z,62.40
2022-12-31T22:38:40.983Z,59.69
2022-12-31T22:41:13.415Z,61.26
2022-12-31T22:43:47.608Z,66.81
2022-12-31T22:46:27.599Z,57.48
2022-12-31T22:49:02.464Z,56.26
2022-12-31T22:51:56.643Z,59.59
2022-12-31T22:54:26.161Z,59.71
2022-12-31T22:56:57.186Z,62.03
2022-12-31T22:59:27.894Z,61.01
2022-12-31T23:01:59.081Z,59.84
2022-12-31T23:04:30.133Z,62.11
2022-12-31T23:09:49.006Z,63.30
2022-12-31T23:12:20.216Z,64.21
2022-12-31T23:15:09.067Z,64.23
2022-12-31T23:17:58.374Z,67.60
2022-12-31T23:20:48.305Z,68.16
2022-12-31T23:23:19.690Z,68.35
2022-12-31T23:25:53.354Z,66.58
2022-12-31T23:28:26.756Z,64.34
2022-12-31T23:30:57.784Z,57.83
2022-12-31T23:33:28.672Z,61.69
2022-12-31T23:36:07.251Z,62.53
2022-12-31T23:38:38.520Z,59.69
2022-12-31T23:41:17.699Z,55.52
2022-12-31T23:43:48.938Z,59.47
2022-12-31T23:46:20.396Z,60.26
2022-12-31T23:48:51.754Z,61.24
2022-12-31T23:51:23.490Z,61.76
2022-12-31T23:53:54.725Z,61.99
2022-12-31T23:56:25.937Z,63.89
2022-12-31T23:58:58.083Z,62.18
